Terminal Aerodrome Forecast
Issued by NWS

Home | Current Version | Previous Version | Graphics & Text | Print | Product List | Glossary On
Versions: 1 2 3 4 5 6 7 8 9 10 11 12 13 14 15 16 17 18 19 20 21 22 23 24
473
FTUS43 KBIS 212322
TAFDIK
TAF
KDIK 212322Z 2200/2224 04009KT P6SM VCTS SCT080CB
      TEMPO 2200/2202 VRB15G25KT 4SM -TSRA
     FM220200 26007KT P6SM SCT070
     FM221000 29008KT P6SM BKN035
     FM221200 31009KT P6SM VCSH BKN006
     FM221600 34010KT P6SM VCSH OVC004=

USA.gov is the U.S. government's official web portal to all federal, state and local government web resources and services.